»·PEaware :: N333BS O88-KMHR

N333BS :: O88-KMHR

FLIGHT INFORMATION

Flight Status: Arrived
Operator: Privately registered:
United States
More flights under this callsign
Pilot: Simon C. (22315)
Aircraft: CESSNA 310
(C310)
More flights by this aircraft type
Origin: O88 Rio Vista Mun
United States
Destination: KMHR Mather
United States
More flights between these airports :: More routes between these airports
Route: VFR THEN RNAV22
File this flight plan on PilotEdge
Remarks: New to PE Practicing - DME, Mode C, GPS
Altitude:
(Current/Filed)
3,500ft
Speed:
(Current/Filed)
160kts
Departed: 01-Jan-19 07:55 AM
Arrived: 01-Jan-19 08:26 AM
Distance/Time
Traveled:
29nm/0:30
Distance/Time
To Go:
Arrived

Flight Plot

Page will automatically refresh every two minutes.

Flight plan parsing failed; only flown route is shown


Map Options




Map Legend


Flown Route
Filed Route
Departure Airport
Arrival Airport
Navaid (VOR, NDB)
Fix

Horizontal Profiles

Position Reports

Time Latitude Longitude Heading Altitude Ground
Speed
01-Jan-19 07:40 38.192736 -121.701375 359 20ft 0kts
01-Jan-19 07:41 38.192736 -121.701375 359 20ft 0kts
01-Jan-19 07:42 38.192736 -121.701375 359 20ft 0kts
01-Jan-19 07:43 38.192736 -121.701375 359 20ft 0kts
01-Jan-19 07:44 38.192736 -121.701375 359 20ft 0kts
01-Jan-19 07:45 38.192736 -121.701375 359 20ft 0kts
01-Jan-19 07:46 38.192737 -121.701375 359 20ft 0kts
01-Jan-19 07:47 38.192737 -121.701375 359 20ft 0kts
01-Jan-19 07:48 38.192736 -121.701375 359 20ft 0kts
01-Jan-19 07:49 38.192736 -121.701375 359 20ft 0kts
01-Jan-19 07:50 38.192736 -121.701375 359 20ft 0kts
01-Jan-19 07:51 38.192977 -121.701185 57 20ft 7kts
01-Jan-19 07:52 38.193759 -121.695037 1 17ft 0kts
01-Jan-19 07:53 38.193759 -121.695037 2 17ft 0kts
01-Jan-19 07:54 38.194306 -121.698282 275 18ft 75kts
01-Jan-19 07:55 38.185850 -121.736886 215 1401ft 143kts
01-Jan-19 07:56 38.171370 -121.716831 45 2626ft 104kts
01-Jan-19 07:57 38.192351 -121.683620 37 3174ft 131kts
01-Jan-19 07:58 38.224812 -121.661030 34 3688ft 139kts
01-Jan-19 07:59 38.255367 -121.624625 38 3756ft 159kts
01-Jan-19 08:00 38.287796 -121.583310 39 3532ft 177kts
01-Jan-19 08:01 38.320191 -121.541565 39 3502ft 159kts
01-Jan-19 08:02 38.350984 -121.501992 38 3500ft 158kts
01-Jan-19 08:03 38.379905 -121.464745 39 3501ft 159kts
01-Jan-19 08:04 38.409296 -121.426840 39 3500ft 159kts
01-Jan-19 08:05 38.439052 -121.388422 39 3500ft 160kts
01-Jan-19 08:06 38.470065 -121.348326 40 3500ft 161kts
01-Jan-19 08:07 38.501311 -121.307874 41 3499ft 162kts
01-Jan-19 08:08 38.531956 -121.268144 41 3498ft 159kts
01-Jan-19 08:09 38.562308 -121.228760 41 3499ft 158kts
01-Jan-19 08:10 38.591492 -121.190835 42 3498ft 158kts
01-Jan-19 08:11 38.621938 -121.151414 40 3490ft 154kts
01-Jan-19 08:12 38.650736 -121.114230 42 3482ft 153kts
01-Jan-19 08:13 38.679148 -121.076906 43 3473ft 152kts
01-Jan-19 08:14 38.712986 -121.046446 24 3464ft 150kts
01-Jan-19 08:15 38.747686 -121.020383 65 3455ft 149kts
01-Jan-19 08:16 38.736627 -120.980658 183 3449ft 165kts
01-Jan-19 08:17 38.707355 -121.023752 234 3458ft 166kts
01-Jan-19 08:18 38.679861 -121.071574 235 3260ft 172kts
01-Jan-19 08:19 38.659002 -121.124361 226 2768ft 172kts
01-Jan-19 08:20 38.628884 -121.165332 236 2302ft 140kts
01-Jan-19 08:21 38.609227 -121.200096 235 1679ft 107kts
01-Jan-19 08:22 38.592461 -121.229596 236 1122ft 101kts
01-Jan-19 08:23 38.577144 -121.256552 238 616ft 87kts
01-Jan-19 08:24 38.563685 -121.280420 238 156ft 82kts
01-Jan-19 08:26 38.555355 -121.296498 317 101ft 22kts
01-Jan-19 08:27 38.560071 -121.301974 12 101ft 18kts
01-Jan-19 08:28 38.561318 -121.301148 84 101ft 0kts
01-Jan-19 08:29 38.561318 -121.301148 84 101ft 0kts
01-Jan-19 08:30 38.561318 -121.301148 84 101ft 0kts
01-Jan-19 08:31 38.561318 -121.301148 84 101ft 0kts
01-Jan-19 08:32 38.561318 -121.301148 84 102ft 0kts
01-Jan-19 08:33 38.561318 -121.301148 84 102ft 0kts

Navigation Log

Ident Type
Flight plan parsing failed, navigation log unavailable